Time;durP1;ratioP1;P1;durP2;ratioP2;P2;SDS_P1;SDS_P2;PMS_P1;PMS_P2;Temp;Humidity;BMP_temperature;BMP_pressure;BME280_temperature;BME280_humidity;BME280_pressure;Samples;Min_cycle;Max_cycle;Signal;HPM_P1;HPM_P2
2021/12/24 00:00:21;;;;;;;27.48;13.30;;;;;;;;;;5083173;28;20422;-61
2021/12/24 00:02:49;;;;;;;17.48;10.10;;;;;;;;;;5079400;28;20083;-61
2021/12/24 00:05:15;;;;;;;18.23;9.90;;;;;;;;;;5080495;28;20056;-61
2021/12/24 00:07:42;;;;;;;17.92;10.18;;;;;;;;;;5077992;28;20053;-61
2021/12/24 00:10:15;;;;;;;16.15;9.20;;;;;;;;;;5054555;28;20094;-62
2021/12/24 00:12:54;;;;;;;16.07;9.33;;;;;;;;;;5060362;28;20040;-61
2021/12/24 00:37:16;;;;;;;13.80;8.10;;;;;;;;;;5057626;28;20127;-61
2021/12/24 00:39:51;;;;;;;15.30;8.35;;;;;;;;;;5064511;28;20135;-61
2021/12/24 00:42:18;;;;;;;15.30;8.07;;;;;;;;;;5058312;28;20088;-61
2021/12/24 00:44:45;;;;;;;13.75;8.00;;;;;;;;;;5059300;28;20135;-61
2021/12/24 00:47:11;;;;;;;12.20;6.93;;;;;;;;;;5057241;28;20060;-61
2021/12/24 00:49:38;;;;;;;14.87;9.07;;;;;;;;;;5057260;28;20305;-61
2021/12/24 00:52:20;;;;;;;14.07;8.83;;;;;;;;;;5056298;28;20049;-61
2021/12/24 00:55:06;;;;;;;14.60;8.82;;;;;;;;;;5055698;28;20132;-61
2021/12/24 00:57:36;;;;;;;13.60;8.00;;;;;;;;;;5054838;28;20098;-61
2021/12/24 01:00:05;;;;;;;14.25;8.15;;;;;;;;;;5054745;28;20077;-61
2021/12/24 01:02:32;;;;;;;16.88;9.48;;;;;;;;;;5054942;28;20055;-62
2021/12/24 01:04:58;;;;;;;14.00;8.30;;;;;;;;;;5055658;28;20105;-61
2021/12/24 01:07:32;;;;;;;13.00;7.55;;;;;;;;;;5057121;28;20139;-61
2021/12/24 01:09:58;;;;;;;15.30;7.70;;;;;;;;;;5058382;28;20143;-61
2021/12/24 01:12:25;;;;;;;11.98;7.78;;;;;;;;;;5061651;28;20132;-61
2021/12/24 01:14:52;;;;;;;11.45;7.78;;;;;;;;;;5060644;28;20135;-61
2021/12/24 01:19:50;;;;;;;14.60;7.03;;;;;;;;;;5056630;28;20489;-61
2021/12/24 01:23:14;;;;;;;13.35;7.50;;;;;;;;;;5056290;28;21736;-61
2021/12/24 01:25:36;;;;;;;10.98;6.78;;;;;;;;;;5055112;28;20143;-61
2021/12/24 01:38:48;;;;;;;10.85;6.68;;;;;;;;;;5059181;28;20053;-61
2021/12/24 01:42:41;;;;;;;10.57;6.53;;;;;;;;;;5055585;28;20049;-61
2021/12/24 01:44:09;;;;;;;10.35;6.00;;;;;;;;;;5063641;28;20492;-61
2021/12/24 01:46:37;;;;;;;11.18;6.28;;;;;;;;;;5055978;28;20053;-61
2021/12/24 01:49:03;;;;;;;8.57;5.53;;;;;;;;;;5064791;28;20048;-61
2021/12/24 01:51:30;;;;;;;8.85;5.07;;;;;;;;;;5063671;28;20133;-61
2021/12/24 01:53:56;;;;;;;9.05;5.90;;;;;;;;;;5056845;28;20838;-61
2021/12/24 01:56:23;;;;;;;8.05;6.00;;;;;;;;;;5059081;28;20080;-61
2021/12/24 01:58:49;;;;;;;9.63;5.97;;;;;;;;;;5054730;28;20147;-61
2021/12/24 02:01:27;;;;;;;9.82;5.80;;;;;;;;;;5055126;28;20053;-61
2021/12/24 02:03:53;;;;;;;9.25;5.88;;;;;;;;;;5056843;28;20060;-61
2021/12/24 02:06:20;;;;;;;8.30;6.07;;;;;;;;;;5054446;28;20045;-61
2021/12/24 02:08:47;;;;;;;5.85;4.03;;;;;;;;;;5065652;28;20128;-61
2021/12/24 02:11:13;;;;;;;9.00;6.07;;;;;;;;;;5059818;28;20059;-61
2021/12/24 02:13:40;;;;;;;10.00;6.00;;;;;;;;;;5059718;28;20410;-61
2021/12/24 02:16:45;;;;;;;9.02;5.78;;;;;;;;;;5059435;28;20567;-61
2021/12/24 02:30:12;;;;;;;9.45;5.65;;;;;;;;;;5054130;28;20041;-61
2021/12/24 02:32:45;;;;;;;10.55;6.53;;;;;;;;;;5056687;28;20136;-61
2021/12/24 02:35:11;;;;;;;10.63;6.30;;;;;;;;;;5052127;28;20147;-61
2021/12/24 02:37:38;;;;;;;10.43;6.20;;;;;;;;;;5055785;28;20132;-61
2021/12/24 02:40:11;;;;;;;11.27;6.05;;;;;;;;;;5057885;28;20136;-61
2021/12/24 02:42:38;;;;;;;9.65;5.82;;;;;;;;;;5057646;28;20907;-61
2021/12/24 02:45:05;;;;;;;9.30;5.17;;;;;;;;;;5059553;28;20131;-61
2021/12/24 02:47:56;;;;;;;7.25;4.72;;;;;;;;;;5043005;27;21586;-61
2021/12/24 02:55:35;;;;;;;7.35;3.55;;;;;;;;;;5037569;28;20049;-61
2021/12/24 02:58:04;;;;;;;4.03;2.42;;;;;;;;;;5038257;28;20515;-61
2021/12/24 03:00:30;;;;;;;3.90;2.47;;;;;;;;;;5038285;28;20049;-61
2021/12/24 03:02:57;;;;;;;3.83;2.00;;;;;;;;;;5038187;28;20057;-61
2021/12/24 03:05:30;;;;;;;4.70;2.15;;;;;;;;;;5038671;28;20132;-61
2021/12/24 03:07:56;;;;;;;3.67;1.95;;;;;;;;;;5038147;28;20471;-61
2021/12/24 03:10:22;;;;;;;3.65;2.15;;;;;;;;;;5037507;28;20045;-61
2021/12/24 03:12:51;;;;;;;;;;;;;;;;;;5038565;28;21216;-61
2021/12/24 03:15:20;;;;;;;4.20;2.33;;;;;;;;;;5037636;28;19935;-61
2021/12/24 03:17:52;;;;;;;2.92;1.90;;;;;;;;;;5038893;28;20080;-61
2021/12/24 03:20:25;;;;;;;2.90;2.08;;;;;;;;;;5038212;28;20125;-61
2021/12/24 03:25:34;;;;;;;5.20;1.90;;;;;;;;;;5030531;28;20129;-61
2021/12/24 03:28:00;;;;;;;5.63;1.50;;;;;;;;;;5038093;28;22188;-61
2021/12/24 03:30:27;;;;;;;1.48;1.20;;;;;;;;;;5038986;28;20500;-61
2021/12/24 03:32:54;;;;;;;3.10;1.20;;;;;;;;;;5038756;28;20059;-61
2021/12/24 03:35:21;;;;;;;1.83;1.27;;;;;;;;;;5038123;28;20041;-61
2021/12/24 03:37:47;;;;;;;3.75;1.65;;;;;;;;;;5038182;28;20385;-61
2021/12/24 03:40:14;;;;;;;6.30;0.70;;;;;;;;;;5039704;28;20132;-61
2021/12/24 03:42:42;;;;;;;1.98;0.63;;;;;;;;;;5041839;28;20093;-61
2021/12/24 03:45:22;;;;;;;1.38;0.60;;;;;;;;;;5041909;28;20072;-61
2021/12/24 03:48:14;;;;;;;0.63;0.43;;;;;;;;;;5042385;28;20647;-61
2021/12/24 03:50:56;;;;;;;3.47;0.47;;;;;;;;;;5045475;28;20556;-61
2021/12/24 03:56:15;;;;;;;2.00;0.85;;;;;;;;;;5040354;28;20124;-61
2021/12/24 03:58:43;;;;;;;0.60;0.40;;;;;;;;;;5042241;28;20084;-61
2021/12/24 04:01:09;;;;;;;0.45;0.45;;;;;;;;;;5042108;28;20584;-61
2021/12/24 04:03:36;;;;;;;2.92;0.90;;;;;;;;;;5039422;28;20060;-62
2021/12/24 04:06:10;;;;;;;0.45;0.45;;;;;;;;;;5028841;28;20045;-61
2021/12/24 04:08:37;;;;;;;2.00;0.63;;;;;;;;;;5039420;28;20152;-61
2021/12/24 04:11:04;;;;;;;3.58;0.63;;;;;;;;;;5037190;28;20071;-63
2021/12/24 04:13:33;;;;;;;0.47;0.40;;;;;;;;;;5023131;28;20132;-61
2021/12/24 04:16:00;;;;;;;0.60;0.60;;;;;;;;;;5039214;28;20081;-62
2021/12/24 04:26:35;;;;;;;3.00;0.60;;;;;;;;;;5039071;28;20092;-61
2021/12/24 04:29:01;;;;;;;0.73;0.73;;;;;;;;;;5044299;28;20107;-62
2021/12/24 04:31:38;;;;;;;9.57;1.27;;;;;;;;;;5038852;28;20132;-62
2021/12/24 04:34:13;;;;;;;3.50;0.70;;;;;;;;;;5038577;28;20045;-61
2021/12/24 04:51:23;;;;;;;4.55;0.65;;;;;;;;;;5041323;28;20127;-62
2021/12/24 05:04:46;;;;;;;3.20;0.93;;;;;;;;;;5077152;28;20391;-62
2021/12/24 05:08:10;;;;;;;1.27;0.70;;;;;;;;;;5075828;28;20124;-62
2021/12/24 05:10:00;;;;;;;4.13;1.13;;;;;;;;;;5064936;28;20131;-62
2021/12/24 05:12:34;;;;;;;1.53;0.70;;;;;;;;;;5078855;28;20131;-62
2021/12/24 05:15:01;;;;;;;3.70;0.73;;;;;;;;;;5077030;28;20201;-62
2021/12/24 05:17:44;;;;;;;;;;;;;;;;;;5077666;28;20122;-62
2021/12/24 05:23:02;;;;;;;0.87;0.60;;;;;;;;;;5076121;28;20141;-62
2021/12/24 05:25:38;;;;;;;2.87;0.70;;;;;;;;;;5076017;28;20127;-61
2021/12/24 05:28:05;;;;;;;0.67;0.50;;;;;;;;;;5077366;28;20175;-62
2021/12/24 05:30:31;;;;;;;2.20;0.80;;;;;;;;;;5076013;28;20131;-62
2021/12/24 05:32:58;;;;;;;0.60;0.60;;;;;;;;;;5082080;28;20063;-62
2021/12/24 05:35:24;;;;;;;0.90;0.52;;;;;;;;;;5080514;28;20048;-62
2021/12/24 05:37:53;;;;;;;0.47;0.47;;;;;;;;;;5081805;28;20075;-62
2021/12/24 05:40:20;;;;;;;1.17;0.47;;;;;;;;;;5084254;28;20138;-62
2021/12/24 05:42:46;;;;;;;1.02;0.70;;;;;;;;;;5075433;28;20079;-62
2021/12/24 05:45:13;;;;;;;0.70;0.40;;;;;;;;;;5074676;28;20080;-62
2021/12/24 05:47:43;;;;;;;1.23;0.77;;;;;;;;;;5080170;28;20519;-62
2021/12/24 05:50:09;;;;;;;1.07;0.60;;;;;;;;;;5078047;28;20086;-62
2021/12/24 05:52:36;;;;;;;1.10;0.50;;;;;;;;;;5078341;28;20326;-62
2021/12/24 05:55:03;;;;;;;0.60;0.60;;;;;;;;;;5081629;28;20154;-62
2021/12/24 05:57:30;;;;;;;0.45;0.45;;;;;;;;;;5079047;28;20095;-62
2021/12/24 05:59:56;;;;;;;2.45;0.52;;;;;;;;;;5075825;28;20171;-62
2021/12/24 06:02:24;;;;;;;1.02;0.50;;;;;;;;;;5074868;28;20127;-62
2021/12/24 06:04:50;;;;;;;0.55;0.52;;;;;;;;;;5074337;28;20772;-61
2021/12/24 06:07:16;;;;;;;1.57;0.43;;;;;;;;;;5081176;28;20414;-62
2021/12/24 06:09:43;;;;;;;2.08;0.50;;;;;;;;;;5084773;28;20144;-62
2021/12/24 06:12:09;;;;;;;0.50;0.50;;;;;;;;;;5080206;28;20139;-62
2021/12/24 06:14:36;;;;;;;2.10;0.60;;;;;;;;;;5077950;28;20102;-61
2021/12/24 06:17:05;;;;;;;2.78;0.70;;;;;;;;;;5083932;28;20113;-62
2021/12/24 06:19:32;;;;;;;3.50;0.60;;;;;;;;;;5087294;28;20052;-61
2021/12/24 06:21:59;;;;;;;3.13;0.50;;;;;;;;;;5086716;28;20134;-61
2021/12/24 06:24:29;;;;;;;0.70;0.70;;;;;;;;;;5066542;28;20135;-61
2021/12/24 06:26:55;;;;;;;1.08;0.65;;;;;;;;;;5065072;28;20132;-61
2021/12/24 06:29:21;;;;;;;0.70;0.50;;;;;;;;;;5066580;28;20045;-61
2021/12/24 06:31:55;;;;;;;0.90;0.73;;;;;;;;;;5061045;28;20084;-61
2021/12/24 06:34:21;;;;;;;3.60;0.57;;;;;;;;;;5057307;28;20057;-61
2021/12/24 06:36:50;;;;;;;0.88;0.60;;;;;;;;;;5052326;28;20042;-61
2021/12/24 06:39:18;;;;;;;1.43;0.50;;;;;;;;;;5083018;28;20139;-61
2021/12/24 06:41:44;;;;;;;0.70;0.70;;;;;;;;;;5080071;28;20128;-61
2021/12/24 06:44:12;;;;;;;0.40;0.40;;;;;;;;;;5062863;28;20405;-61
2021/12/24 06:46:53;;;;;;;0.70;0.70;;;;;;;;;;5053286;28;20513;-61
2021/12/24 06:49:19;;;;;;;8.93;4.28;;;;;;;;;;5060979;28;20044;-61
2021/12/24 06:51:46;;;;;;;0.70;0.70;;;;;;;;;;5061355;28;20131;-61
2021/12/24 06:54:12;;;;;;;0.40;0.40;;;;;;;;;;5062000;28;20139;-61
2021/12/24 06:56:46;;;;;;;2.27;0.60;;;;;;;;;;5062426;28;20076;-61
2021/12/24 06:59:12;;;;;;;1.30;0.68;;;;;;;;;;5057377;28;20132;-61
2021/12/24 07:01:38;;;;;;;0.60;0.60;;;;;;;;;;5064847;28;20136;-61
2021/12/24 07:04:08;;;;;;;0.60;0.60;;;;;;;;;;5057120;28;20064;-61
2021/12/24 07:06:35;;;;;;;;;;;;;;;;;;5080589;28;20048;-62
2021/12/24 07:09:02;;;;;;;0.60;0.60;;;;;;;;;;5079807;28;20015;-61
2021/12/24 07:11:28;;;;;;;0.57;0.50;;;;;;;;;;5080766;28;20131;-61
2021/12/24 07:13:55;;;;;;;2.13;0.80;;;;;;;;;;5075481;28;20131;-61
2021/12/24 07:16:21;;;;;;;1.25;0.70;;;;;;;;;;5079889;28;20135;-62
2021/12/24 07:18:48;;;;;;;0.75;0.68;;;;;;;;;;5082524;28;20086;-61
2021/12/24 07:21:14;;;;;;;0.63;0.63;;;;;;;;;;5079979;28;20408;-62
2021/12/24 07:23:41;;;;;;;0.80;0.80;;;;;;;;;;5079147;28;20433;-61
2021/12/24 07:26:07;;;;;;;1.52;0.60;;;;;;;;;;5079000;28;20072;-61
2021/12/24 07:28:33;;;;;;;0.67;0.67;;;;;;;;;;5076993;28;20914;-61
2021/12/24 07:31:00;;;;;;;1.20;0.88;;;;;;;;;;5076807;28;20071;-61
2021/12/24 07:33:27;;;;;;;1.17;0.77;;;;;;;;;;5077839;28;20072;-61
2021/12/24 07:35:54;;;;;;;0.50;0.50;;;;;;;;;;5082471;28;20127;-61
2021/12/24 07:38:20;;;;;;;0.80;0.80;;;;;;;;;;5082258;28;20330;-61
2021/12/24 07:40:51;;;;;;;1.70;0.50;;;;;;;;;;5083379;28;20377;-61
2021/12/24 07:43:17;;;;;;;0.60;0.60;;;;;;;;;;5082895;28;20091;-61
2021/12/24 07:45:45;;;;;;;2.08;0.80;;;;;;;;;;5079708;28;20124;-62
2021/12/24 07:48:14;;;;;;;2.20;0.90;;;;;;;;;;5076595;28;20125;-61
2021/12/24 07:53:11;;;;;;;1.67;0.97;;;;;;;;;;5082435;28;20049;-61
2021/12/24 07:55:38;;;;;;;2.43;1.00;;;;;;;;;;5083967;28;20137;-61
2021/12/24 07:58:05;;;;;;;0.82;0.80;;;;;;;;;;5081601;28;20407;-61
2021/12/24 08:00:32;;;;;;;0.90;0.80;;;;;;;;;;5080740;28;20072;-61
2021/12/24 08:03:01;;;;;;;1.45;1.02;;;;;;;;;;5078640;28;20052;-61
2021/12/24 08:05:28;;;;;;;2.30;0.80;;;;;;;;;;5073496;28;20856;-61
2021/12/24 08:07:55;;;;;;;1.67;1.17;;;;;;;;;;5066269;28;20080;-61
2021/12/24 08:10:22;;;;;;;3.70;1.13;;;;;;;;;;5083484;28;20083;-61
2021/12/24 08:12:48;;;;;;;1.88;0.98;;;;;;;;;;5079975;28;20132;-61
2021/12/24 08:15:16;;;;;;;3.10;1.03;;;;;;;;;;5081649;28;20127;-61
2021/12/24 08:17:46;;;;;;;5.00;1.33;;;;;;;;;;5084888;28;20325;-61
2021/12/24 08:20:14;;;;;;;0.88;0.75;;;;;;;;;;5086542;28;20128;-61
2021/12/24 08:22:40;;;;;;;;;;;;;;;;;;5077626;28;20098;-61
2021/12/24 08:25:08;;;;;;;1.13;0.90;;;;;;;;;;5078991;28;19973;-62
2021/12/24 08:27:35;;;;;;;2.47;1.10;;;;;;;;;;5080414;28;20075;-61
2021/12/24 08:30:03;;;;;;;2.40;1.33;;;;;;;;;;5075704;28;20461;-61
2021/12/24 08:32:39;;;;;;;3.13;1.20;;;;;;;;;;5077913;28;20079;-62
2021/12/24 08:35:07;;;;;;;2.30;1.43;;;;;;;;;;5082537;28;20131;-62
2021/12/24 08:37:33;;;;;;;2.70;1.10;;;;;;;;;;5082132;28;20126;-62
2021/12/24 08:40:07;;;;;;;1.10;0.73;;;;;;;;;;5055975;28;20045;-61
2021/12/24 08:42:34;;;;;;;1.92;1.00;;;;;;;;;;5056841;28;20090;-62
2021/12/24 08:45:00;;;;;;;2.72;1.25;;;;;;;;;;5060088;28;20143;-62
2021/12/24 08:47:33;;;;;;;1.27;0.80;;;;;;;;;;5050435;28;20057;-62
2021/12/24 08:50:00;;;;;;;1.13;0.88;;;;;;;;;;5049748;28;20569;-61
2021/12/24 08:52:26;;;;;;;2.92;0.90;;;;;;;;;;5056192;28;20495;-62
2021/12/24 08:54:53;;;;;;;1.17;0.85;;;;;;;;;;5056626;28;20163;-62
2021/12/24 08:57:19;;;;;;;3.22;0.82;;;;;;;;;;5063967;28;20468;-62
2021/12/24 08:59:45;;;;;;;6.53;1.00;;;;;;;;;;5050730;28;20131;-62
2021/12/24 09:02:19;;;;;;;4.10;0.90;;;;;;;;;;5055471;28;20135;-61
2021/12/24 09:04:46;;;;;;;3.50;1.10;;;;;;;;;;5061510;28;20063;-61
2021/12/24 09:07:12;;;;;;;0.90;0.70;;;;;;;;;;5058204;28;20123;-61
2021/12/24 09:09:39;;;;;;;1.45;0.93;;;;;;;;;;5059910;28;20080;-61
2021/12/24 09:12:05;;;;;;;5.97;1.20;;;;;;;;;;5059686;28;20080;-62
2021/12/24 09:14:32;;;;;;;1.90;0.90;;;;;;;;;;5060181;28;20080;-61
2021/12/24 09:17:02;;;;;;;1.20;1.10;;;;;;;;;;5060895;28;20044;-61
2021/12/24 09:19:29;;;;;;;2.07;1.07;;;;;;;;;;5057201;28;20117;-62
2021/12/24 09:21:57;;;;;;;0.80;0.80;;;;;;;;;;5056203;28;20131;-62
2021/12/24 09:24:25;;;;;;;1.50;1.20;;;;;;;;;;5060134;28;20052;-62
2021/12/24 09:26:56;;;;;;;1.17;1.07;;;;;;;;;;5056003;28;20045;-62
2021/12/24 09:29:23;;;;;;;2.50;1.27;;;;;;;;;;5057109;28;20053;-62
2021/12/24 09:31:49;;;;;;;1.42;1.00;;;;;;;;;;5060289;28;20055;-62
2021/12/24 09:34:16;;;;;;;2.17;1.05;;;;;;;;;;5049799;28;20080;-62
2021/12/24 09:36:42;;;;;;;2.67;0.80;;;;;;;;;;5057604;28;20081;-62
2021/12/24 09:39:09;;;;;;;1.48;1.10;;;;;;;;;;5056982;28;20047;-62
2021/12/24 09:41:36;;;;;;;4.37;1.23;;;;;;;;;;5065187;28;20052;-62
2021/12/24 09:44:03;;;;;;;3.50;1.17;;;;;;;;;;5058110;28;20056;-62
2021/12/24 09:46:40;;;;;;;1.27;1.10;;;;;;;;;;5049226;28;20319;-62
2021/12/24 09:49:07;;;;;;;3.80;1.00;;;;;;;;;;5063346;28;20041;-62
2021/12/24 09:51:37;;;;;;;1.40;0.70;;;;;;;;;;5056195;28;20055;-62
2021/12/24 09:54:08;;;;;;;11.13;1.47;;;;;;;;;;5050269;28;20123;-62
2021/12/24 09:56:34;;;;;;;1.73;1.00;;;;;;;;;;5064146;28;20044;-62
2021/12/24 09:59:01;;;;;;;1.43;0.77;;;;;;;;;;5045286;28;20495;-62
2021/12/24 10:01:32;;;;;;;4.13;1.00;;;;;;;;;;5050244;28;20317;-62
2021/12/24 10:04:00;;;;;;;3.20;0.90;;;;;;;;;;5053330;28;20041;-61
2021/12/24 10:06:27;;;;;;;1.27;0.70;;;;;;;;;;5054970;28;20575;-62
2021/12/24 10:09:09;;;;;;;4.03;1.20;;;;;;;;;;5056620;28;20135;-62
2021/12/24 10:11:48;;;;;;;0.73;0.70;;;;;;;;;;5056271;28;20076;-62
2021/12/24 10:14:32;;;;;;;0.97;0.90;;;;;;;;;;5055330;28;20142;-62
2021/12/24 10:16:59;;;;;;;1.50;0.90;;;;;;;;;;5057938;28;20103;-61
2021/12/24 10:19:25;;;;;;;3.60;1.50;;;;;;;;;;5058293;28;20066;-62
2021/12/24 10:21:59;;;;;;;2.17;1.88;;;;;;;;;;5053358;28;20132;-62
2021/12/24 10:24:26;;;;;;;1.73;1.00;;;;;;;;;;5052784;28;20045;-62
2021/12/24 10:26:57;;;;;;;3.03;0.90;;;;;;;;;;5060956;28;20140;-62
2021/12/24 10:29:42;;;;;;;2.30;1.03;;;;;;;;;;5059162;28;20536;-62
2021/12/24 10:32:16;;;;;;;2.23;1.10;;;;;;;;;;5056343;28;20049;-62
2021/12/24 10:34:42;;;;;;;;;;;;;;;;;;5063110;28;20132;-62
2021/12/24 10:37:22;;;;;;;1.80;1.03;;;;;;;;;;5055342;28;20012;-62
2021/12/24 10:39:50;;;;;;;1.77;1.07;;;;;;;;;;5060606;28;20575;-62
2021/12/24 10:42:17;;;;;;;4.47;1.10;;;;;;;;;;5057379;28;20469;-62
2021/12/24 10:44:45;;;;;;;1.55;1.00;;;;;;;;;;5058569;28;20052;-62
2021/12/24 10:47:19;;;;;;;2.03;1.40;;;;;;;;;;5058814;28;20073;-62
2021/12/24 10:53:12;;;;;;;2.07;1.10;;;;;;;;;;5056853;28;20132;-62
2021/12/24 10:55:09;;;;;;;1.33;1.00;;;;;;;;;;5041508;28;20094;-62
2021/12/24 10:57:38;;;;;;;1.67;1.20;;;;;;;;;;5057265;28;20131;-62
2021/12/24 11:00:28;;;;;;;2.33;1.10;;;;;;;;;;5058687;28;20176;-62
2021/12/24 11:03:06;;;;;;;1.70;1.07;;;;;;;;;;5054742;28;20087;-62
2021/12/24 11:05:38;;;;;;;1.20;1.00;;;;;;;;;;5059771;28;20098;-62
2021/12/24 11:08:09;;;;;;;2.37;1.20;;;;;;;;;;5059225;28;20135;-62
2021/12/24 11:10:38;;;;;;;1.83;1.17;;;;;;;;;;5064989;28;20055;-62
2021/12/24 11:13:13;;;;;;;1.20;1.10;;;;;;;;;;5054748;28;20071;-62
2021/12/24 11:15:50;;;;;;;2.00;0.90;;;;;;;;;;5062580;28;20156;-62
2021/12/24 11:18:16;;;;;;;3.17;1.10;;;;;;;;;;5059418;28;20045;-62
2021/12/24 11:20:44;;;;;;;1.60;1.05;;;;;;;;;;5061749;28;20146;-62
2021/12/24 11:23:12;;;;;;;2.30;1.23;;;;;;;;;;5060001;28;20580;-62
2021/12/24 11:25:39;;;;;;;0.90;0.87;;;;;;;;;;5057970;28;20132;-62
2021/12/24 11:28:08;;;;;;;1.40;0.93;;;;;;;;;;5059115;28;20172;-62
2021/12/24 11:30:36;;;;;;;1.75;0.85;;;;;;;;;;5060498;28;20132;-62
2021/12/24 11:33:03;;;;;;;3.97;1.37;;;;;;;;;;5054347;28;20105;-62
2021/12/24 11:35:30;;;;;;;1.98;1.10;;;;;;;;;;5054763;28;20140;-62
2021/12/24 11:37:59;;;;;;;5.72;1.33;;;;;;;;;;5058455;28;20064;-62
2021/12/24 11:40:26;;;;;;;1.30;1.00;;;;;;;;;;5054876;28;20053;-62
2021/12/24 11:42:59;;;;;;;3.67;1.87;;;;;;;;;;5058273;28;20139;-62
2021/12/24 11:45:26;;;;;;;1.23;1.13;;;;;;;;;;5056436;28;20507;-62
2021/12/24 11:47:53;;;;;;;1.57;0.73;;;;;;;;;;5059786;28;20053;-62
2021/12/24 11:50:21;;;;;;;1.63;0.80;;;;;;;;;;5071630;28;20044;-62
2021/12/24 11:52:47;;;;;;;;;;;;;;;;;;5061447;28;20552;-62
2021/12/24 11:55:14;;;;;;;37.93;13.77;;;;;;;;;;5059957;28;19978;-62
2021/12/24 11:57:54;;;;;;;2.03;1.23;;;;;;;;;;5055316;28;20123;-62
2021/12/24 12:00:27;;;;;;;5.37;1.57;;;;;;;;;;5058323;28;20079;-61
2021/12/24 12:02:53;;;;;;;0.90;0.83;;;;;;;;;;5063436;28;20045;-61
2021/12/24 12:05:22;;;;;;;1.02;0.93;;;;;;;;;;5056786;28;20059;-62
2021/12/24 12:07:50;;;;;;;2.87;1.70;;;;;;;;;;5057771;28;20527;-62
2021/12/24 12:10:35;;;;;;;1.67;1.00;;;;;;;;;;5054454;28;20527;-61
2021/12/24 12:13:02;;;;;;;4.63;1.87;;;;;;;;;;5061086;28;20136;-62
2021/12/24 12:15:32;;;;;;;1.73;1.30;;;;;;;;;;5055743;28;20135;-62
2021/12/24 12:17:58;;;;;;;2.33;1.33;;;;;;;;;;5057527;28;20690;-62
2021/12/24 12:20:55;;;;;;;2.80;0.80;;;;;;;;;;5053219;28;20081;-62
2021/12/24 12:23:47;;;;;;;2.20;1.33;;;;;;;;;;5052164;28;20088;-62
2021/12/24 12:26:32;;;;;;;1.23;1.10;;;;;;;;;;5058725;28;20051;-62
2021/12/24 12:29:16;;;;;;;2.63;0.97;;;;;;;;;;5056065;28;20135;-62
2021/12/24 12:31:43;;;;;;;1.87;0.80;;;;;;;;;;5051127;28;20128;-62
2021/12/24 12:34:48;;;;;;;2.30;1.40;;;;;;;;;;5058741;28;20127;-62
2021/12/24 12:37:18;;;;;;;1.30;0.90;;;;;;;;;;5007307;28;20053;-62
2021/12/24 12:39:46;;;;;;;2.40;0.90;;;;;;;;;;5050282;28;20127;-62
2021/12/24 12:42:17;;;;;;;2.70;1.10;;;;;;;;;;5061158;28;20143;-62
2021/12/24 12:44:51;;;;;;;1.30;1.20;;;;;;;;;;5057113;28;20123;-62
2021/12/24 12:47:27;;;;;;;3.10;0.93;;;;;;;;;;5053708;28;20423;-62
2021/12/24 12:50:12;;;;;;;1.73;0.90;;;;;;;;;;5063883;28;20561;-62
2021/12/24 12:52:41;;;;;;;2.30;1.40;;;;;;;;;;5047044;28;20520;-62
2021/12/24 12:55:28;;;;;;;1.57;1.17;;;;;;;;;;5056514;28;20128;-62
2021/12/24 12:58:20;;;;;;;4.07;0.90;;;;;;;;;;5056783;28;20492;-62
2021/12/24 13:01:02;;;;;;;0.87;0.87;;;;;;;;;;5057160;28;20119;-62
2021/12/24 13:03:29;;;;;;;0.90;0.80;;;;;;;;;;5059685;28;20059;-62
2021/12/24 13:06:00;;;;;;;3.22;1.25;;;;;;;;;;5057494;28;20490;-62
2021/12/24 13:08:28;;;;;;;1.07;0.90;;;;;;;;;;5050241;28;20071;-62
2021/12/24 13:11:02;;;;;;;1.43;0.83;;;;;;;;;;5047766;28;20159;-62
2021/12/24 13:13:30;;;;;;;2.17;1.10;;;;;;;;;;5052786;28;20814;-62
2021/12/24 13:15:57;;;;;;;2.73;0.80;;;;;;;;;;5053893;28;20095;-62
2021/12/24 13:18:32;;;;;;;1.23;0.83;;;;;;;;;;5060167;28;20135;-61
2021/12/24 13:23:33;;;;;;;2.67;0.90;;;;;;;;;;5055357;28;20163;-62
2021/12/24 13:26:26;;;;;;;1.23;1.00;;;;;;;;;;5060089;28;20113;-62
2021/12/24 13:29:00;;;;;;;2.03;1.10;;;;;;;;;;5053112;28;20088;-62
2021/12/24 13:31:29;;;;;;;2.83;1.00;;;;;;;;;;5058196;28;20139;-62
2021/12/24 13:33:56;;;;;;;3.33;1.30;;;;;;;;;;5050255;28;20053;-62
2021/12/24 13:36:24;;;;;;;2.55;0.98;;;;;;;;;;5059866;28;20493;-62
2021/12/24 13:39:10;;;;;;;2.57;0.90;;;;;;;;;;5057485;28;20160;-61
2021/12/24 13:41:38;;;;;;;8.37;2.30;;;;;;;;;;5056888;28;20055;-62
2021/12/24 13:44:05;;;;;;;2.42;1.35;;;;;;;;;;5056262;28;20044;-62
2021/12/24 13:46:36;;;;;;;6.00;1.30;;;;;;;;;;5053253;28;20132;-62
2021/12/24 13:49:20;;;;;;;5.40;1.37;;;;;;;;;;5029712;28;20046;-62
2021/12/24 13:54:34;;;;;;;14.77;5.87;;;;;;;;;;5031963;28;20152;-62
2021/12/24 13:57:04;;;;;;;4.90;1.97;;;;;;;;;;5030339;28;20049;-62
2021/12/24 13:59:31;;;;;;;7.33;2.47;;;;;;;;;;5026343;28;20103;-62
2021/12/24 14:02:00;;;;;;;2.28;1.08;;;;;;;;;;5041448;28;20204;-62
2021/12/24 14:04:28;;;;;;;2.53;1.03;;;;;;;;;;5040037;28;20060;-62
2021/12/24 14:06:56;;;;;;;2.53;1.10;;;;;;;;;;5033533;28;20429;-62
2021/12/24 14:09:30;;;;;;;1.20;1.10;;;;;;;;;;5033275;28;20290;-63
2021/12/24 14:11:57;;;;;;;2.50;0.90;;;;;;;;;;5035203;28;20561;-62
2021/12/24 14:14:31;;;;;;;1.45;1.23;;;;;;;;;;5034341;28;20469;-62
2021/12/24 14:17:33;;;;;;;1.10;1.00;;;;;;;;;;5058371;28;20497;-62
2021/12/24 14:22:29;;;;;;;3.77;1.67;;;;;;;;;;5037786;28;20594;-62
2021/12/24 14:25:01;;;;;;;5.23;3.20;;;;;;;;;;5037945;28;20053;-62
2021/12/24 14:27:30;;;;;;;2.93;1.97;;;;;;;;;;5035809;28;20144;-61
2021/12/24 14:30:02;;;;;;;1.87;1.60;;;;;;;;;;5034134;28;20148;-62
2021/12/24 14:32:28;;;;;;;5.43;2.30;;;;;;;;;;5038282;28;20168;-62
2021/12/24 14:34:55;;;;;;;7.15;6.20;;;;;;;;;;5037113;28;20136;-62
2021/12/24 14:37:32;;;;;;;10.77;6.88;;;;;;;;;;5031817;28;20049;-62
2021/12/24 14:39:59;;;;;;;9.90;4.72;;;;;;;;;;5038410;28;20128;-62
2021/12/24 14:42:27;;;;;;;3.35;1.45;;;;;;;;;;5044439;28;20132;-62
2021/12/24 14:45:11;;;;;;;5.00;2.40;;;;;;;;;;5039033;28;20065;-62
2021/12/24 14:47:56;;;;;;;4.07;1.43;;;;;;;;;;5047872;28;20041;-61
2021/12/24 14:50:23;;;;;;;5.22;1.85;;;;;;;;;;5062808;28;20072;-62
2021/12/24 14:53:19;;;;;;;4.70;1.77;;;;;;;;;;5061347;28;20485;-62
2021/12/24 14:56:12;;;;;;;3.00;2.00;;;;;;;;;;5062943;28;20127;-62
2021/12/24 14:58:43;;;;;;;2.93;2.00;;;;;;;;;;5057145;28;20449;-62
2021/12/24 15:01:15;;;;;;;3.67;1.43;;;;;;;;;;5057322;28;20131;-62
2021/12/24 15:03:43;;;;;;;2.17;1.17;;;;;;;;;;5061483;28;20045;-62
2021/12/24 15:06:16;;;;;;;4.20;2.70;;;;;;;;;;5058920;28;20136;-62
2021/12/24 15:08:43;;;;;;;1.83;1.70;;;;;;;;;;5057685;28;20135;-62
2021/12/24 15:11:14;;;;;;;2.67;2.00;;;;;;;;;;5062244;28;20139;-62
2021/12/24 15:13:46;;;;;;;10.87;6.30;;;;;;;;;;5067697;28;20141;-61
2021/12/24 15:16:16;;;;;;;9.10;4.90;;;;;;;;;;5054574;28;20200;-62
2021/12/24 15:18:47;;;;;;;3.37;2.23;;;;;;;;;;5070441;28;20045;-61
2021/12/24 15:21:14;;;;;;;9.70;4.30;;;;;;;;;;5069472;28;20053;-61
2021/12/24 15:23:41;;;;;;;3.00;2.38;;;;;;;;;;5064880;28;20053;-62
2021/12/24 15:26:08;;;;;;;10.15;5.13;;;;;;;;;;5064805;28;20469;-62
2021/12/24 15:28:41;;;;;;;3.97;2.40;;;;;;;;;;5061486;28;20143;-62
2021/12/24 15:31:08;;;;;;;11.23;2.80;;;;;;;;;;5055174;28;20063;-62
2021/12/24 15:33:35;;;;;;;3.30;1.90;;;;;;;;;;5057280;28;20055;-61
2021/12/24 15:36:02;;;;;;;3.67;2.60;;;;;;;;;;5056735;28;20588;-62
2021/12/24 15:38:29;;;;;;;2.33;1.90;;;;;;;;;;5065884;28;20136;-62
2021/12/24 15:40:55;;;;;;;3.67;1.60;;;;;;;;;;5061157;28;20076;-62
2021/12/24 15:43:23;;;;;;;5.68;3.05;;;;;;;;;;5056382;28;20140;-61
2021/12/24 15:45:51;;;;;;;2.57;1.83;;;;;;;;;;5062891;28;20135;-61
2021/12/24 15:48:18;;;;;;;6.87;1.77;;;;;;;;;;5056429;28;20053;-62
2021/12/24 15:50:44;;;;;;;3.58;1.92;;;;;;;;;;5054460;28;20147;-61
2021/12/24 15:53:11;;;;;;;8.50;3.38;;;;;;;;;;5065650;28;20441;-62
2021/12/24 15:55:37;;;;;;;8.48;4.00;;;;;;;;;;5064180;28;20048;-61
2021/12/24 15:58:05;;;;;;;5.32;3.00;;;;;;;;;;5056352;28;20195;-61
2021/12/24 16:00:32;;;;;;;2.87;2.57;;;;;;;;;;5062602;28;20062;-61
2021/12/24 16:03:01;;;;;;;9.60;7.00;;;;;;;;;;5054447;28;20225;-62
2021/12/24 16:05:28;;;;;;;12.15;8.10;;;;;;;;;;5055422;28;20053;-62
2021/12/24 16:07:54;;;;;;;7.90;5.47;;;;;;;;;;5062615;28;20155;-61
2021/12/24 16:10:28;;;;;;;5.80;2.50;;;;;;;;;;5059127;28;20139;-61
2021/12/24 16:12:57;;;;;;;3.28;1.65;;;;;;;;;;5068654;28;20139;-62
2021/12/24 16:15:23;;;;;;;7.87;3.40;;;;;;;;;;5059783;28;20657;-61
2021/12/24 16:17:57;;;;;;;6.40;2.67;;;;;;;;;;5059594;28;20802;-62
2021/12/24 16:20:23;;;;;;;3.60;2.30;;;;;;;;;;5059475;28;20147;-61
2021/12/24 16:22:50;;;;;;;5.13;2.08;;;;;;;;;;5060901;28;20052;-61
2021/12/24 16:25:20;;;;;;;5.03;1.90;;;;;;;;;;5057882;28;20141;-62
2021/12/24 16:27:46;;;;;;;3.25;1.92;;;;;;;;;;5059020;28;20155;-61
2021/12/24 16:30:14;;;;;;;6.53;1.92;;;;;;;;;;5059391;28;20041;-61
2021/12/24 16:32:42;;;;;;;4.00;2.50;;;;;;;;;;5054017;28;20137;-61
2021/12/24 16:35:10;;;;;;;6.03;2.88;;;;;;;;;;5062843;28;20057;-62
2021/12/24 16:37:37;;;;;;;7.43;4.10;;;;;;;;;;5056717;28;20036;-61
2021/12/24 16:40:03;;;;;;;;;;;;;;;;;;5059297;28;20174;-61
2021/12/24 16:42:30;;;;;;;4.20;2.20;;;;;;;;;;5058313;28;20023;-61
2021/12/24 16:44:57;;;;;;;6.47;2.60;;;;;;;;;;5061564;28;20057;-61
2021/12/24 16:47:23;;;;;;;5.15;2.50;;;;;;;;;;5060804;28;20092;-61